Kris Kin — 9V2739 — position and weather

sailwx.info

Track history (hours):
 
Tides and Currents Weather Stations Pressure Air Temp Water Temp Dewpoint Dewpoint Depression Visibility Wind Speed Wind Dir Waves Ship Positions

Kris Kin

Last reported at 2018-Feb-23 19:00 UTC. Time now 2018-Feb-24 00:02 UTC.
Position N 44°36' W 009°12'.

Length 120 m; draft 6.9 m.

Type: Tanker. MMSI: 566481000.

Wind from 100 at 19 knots

Barometer 1010.0 mb
Air temperature 10.0 ° C
Visibility: greater than 5.4 NM
Dewpoint 5.7 ° C
Water temperature 10.0 ° C

Date/timePositionNaut miles runAvg speedWind from/ knotsBaromVisibWave heightAir tempDewpointWater temp
2018-Feb-23 19:00N 44°36' W 009°12'30212.9 100 / 191010.0 5.4 10.0 5.710.0
2018-Feb-22 19:39N 48°59' W 005°36'8512.4
2018-Feb-22 12:47N 49°43' W 003°44'16 6.8
2018-Feb-22 10:31N 49°50' W 003°22'012.5
2018-Feb-22 10:30N 49°50' W 003°22'912.1
2018-Feb-22 09:44N 49°54' W 003°09'412.3
2018-Feb-22 09:27N 49°56' W 003°04'612.5
2018-Feb-22 08:57N 49°59' W 002°56'613.0
2018-Feb-22 08:27N 50°01' W 002°46'813.7
2018-Feb-22 07:51N 50°03' W 002°34'1416.6
2018-Feb-22 07:00N 50°06' W 002°12'1214.2 070 / 131025.0 5.4 6.0 3.6 8.0
2018-Feb-22 06:10N 50°10' W 001°55'316.4
2018-Feb-22 06:01N 50°11' W 001°51'816.4
2018-Feb-22 05:31N 50°13' W 001°39'816.2
2018-Feb-22 05:00N 50°16' W 001°27'816.0
2018-Feb-22 04:30N 50°18' W 001°15'3913.6
2018-Feb-22 01:39N 50°28' W 000°16'212.1
2018-Feb-22 01:30N 50°28' W 000°13'611.7
2018-Feb-22 01:00N 50°30' W 000°04'611.4
2018-Feb-22 00:30N 50°31' E 000°05'611.5
2018-Feb-22 00:00N 50°33' E 000°13'611.6
2018-Feb-21 23:28N 50°35' E 000°22'612.2
2018-Feb-21 23:00N 50°37' E 000°31'613.1
2018-Feb-21 22:30N 50°40' E 000°39'713.9
2018-Feb-21 22:00N 50°44' E 000°49'714.7
2018-Feb-21 21:30N 50°48' E 000°59'815.0
2018-Feb-21 21:00N 50°53' E 001°07'815.1
2018-Feb-21 20:30N 50°58' E 001°16'714.9
2018-Feb-21 20:00N 51°03' E 001°25'713.9
2018-Feb-21 19:30N 51°08' E 001°33'612.8
2018-Feb-21 19:00N 51°12' E 001°41'7580.2
2018-Feb-21 19:00N 51°06' E 001°36'1326.1 030 / 151027.0 5.4 6.0 3.6 3.0
2018-Feb-21 18:30N 51°16' E 001°48'611.9
2018-Feb-21 18:00N 51°22' E 001°53'611.6
2018-Feb-21 17:31N 51°26' E 001°58'611.8
2018-Feb-21 17:00N 51°31' E 002°04'611.7
2018-Feb-21 16:30N 51°36' E 002°09'611.6
2018-Feb-21 16:00N 51°40' E 002°16'612.3
2018-Feb-21 15:29N 51°44' E 002°23'26513.0
2018-Feb-20 19:00N 56°00' E 004°24'15111.8 080 / 61027.0 5.4 4.0-1.5 6.0
2018-Feb-20 06:11N 58°30' E 004°47'211.8
2018-Feb-20 05:59N 58°32' E 004°48'611.8
2018-Feb-20 05:30N 58°37' E 004°52'611.9
2018-Feb-20 05:00N 58°43' E 004°56'612.7
2018-Feb-20 04:30N 58°49' E 004°60'713.7
2018-Feb-20 04:00N 58°56' E 005°04'714.3
2018-Feb-20 03:30N 59°02' E 005°09'714.4
2018-Feb-20 03:00N 59°06' E 005°21'611.6
2018-Feb-20 02:30N 59°09' E 005°30'611.9
2018-Feb-20 02:00N 59°15' E 005°30'1 1.7
2018-Feb-20 01:28N 59°16' E 005°30'0 0.0
2018-Feb-20 00:58N 59°16' E 005°30'0 0.0
2018-Feb-20 00:28N 59°16' E 005°30'0 0.0
2018-Feb-19 23:58N 59°16' E 005°30'0 0.0
2018-Feb-19 23:28N 59°16' E 005°30'0 0.0
2018-Feb-19 22:58N 59°16' E 005°30'0 0.0
2018-Feb-19 22:28N 59°16' E 005°30'0 0.0
2018-Feb-19 21:58N 59°16' E 005°30'0 0.0
2018-Feb-19 21:28N 59°16' E 005°30'0 0.0
2018-Feb-19 20:55N 59°16' E 005°30'0 0.0
2018-Feb-19 20:28N 59°16' E 005°30'0 0.0
2018-Feb-19 19:58N 59°16' E 005°30'0 0.0
2018-Feb-19 19:25N 59°16' E 005°30'0 0.0
2018-Feb-19 18:58N 59°16' E 005°30'0 0.0
2018-Feb-19 18:28N 59°16' E 005°30'0 0.0
2018-Feb-19 17:55N 59°16' E 005°30'0 0.0
2018-Feb-19 17:28N 59°16' E 005°30'0 0.0
2018-Feb-19 16:58N 59°16' E 005°30'0 0.0
2018-Feb-19 16:28N 59°16' E 005°30'0 0.0
2018-Feb-19 15:58N 59°16' E 005°30'0 0.0
2018-Feb-19 15:28N 59°16' E 005°30'0 0.0
2018-Feb-19 14:58N 59°16' E 005°30'0 0.0
2018-Feb-19 14:28N 59°16' E 005°30'0 0.0
2018-Feb-19 13:58N 59°16' E 005°30'0 0.0
2018-Feb-19 13:28N 59°16' E 005°30'0 0.0
2018-Feb-19 12:58N 59°16' E 005°30'0 0.0
2018-Feb-19 12:28N 59°16' E 005°30'0 0.0
2018-Feb-19 11:58N 59°16' E 005°30'0 0.0
2018-Feb-19 11:28N 59°16' E 005°30'0 0.0
2018-Feb-19 10:55N 59°16' E 005°30'0 0.0
2018-Feb-19 10:28N 59°16' E 005°30'0 0.0
2018-Feb-19 09:58N 59°16' E 005°30'0 0.0
2018-Feb-19 09:28N 59°16' E 005°30'0 0.0
2018-Feb-19 08:55N 59°16' E 005°30'0 0.0
2018-Feb-19 08:28N 59°16' E 005°30'0 0.0
2018-Feb-19 07:58N 59°16' E 005°30'0 0.0
2018-Feb-19 07:28N 59°16' E 005°30'0 0.5
2018-Feb-19 07:00N 59°16' E 005°30'2 3.8
2018-Feb-19 06:30N 59°14' E 005°31'0 0.7
2018-Feb-19 06:00N 59°14' E 005°31'0 0.1
2018-Feb-19 05:30N 59°14' E 005°31'0 0.0
2018-Feb-19 05:00N 59°14' E 005°31'0 0.0
2018-Feb-19 04:30N 59°14' E 005°31'0 0.0
2018-Feb-19 04:00N 59°14' E 005°31'0 0.0
2018-Feb-19 03:30N 59°14' E 005°31'0 0.0
2018-Feb-19 03:00N 59°14' E 005°31'0 0.0
2018-Feb-19 02:30N 59°14' E 005°31'0 0.0
2018-Feb-19 02:00N 59°14' E 005°31'0 0.0
2018-Feb-19 01:30N 59°14' E 005°31'0 0.0
2018-Feb-19 01:00N 59°14' E 005°31'0 0.0
2018-Feb-19 00:30N 59°14' E 005°31'0 0.0
2018-Feb-19 00:00N 59°14' E 005°31'0 0.0
2018-Feb-18 23:30N 59°14' E 005°31'0 0.0
2018-Feb-18 23:00N 59°14' E 005°31'0 0.0
2018-Feb-18 22:30N 59°14' E 005°31'0 0.0
2018-Feb-18 22:00N 59°14' E 005°31'0 0.0
2018-Feb-18 21:30N 59°14' E 005°31'0 0.0
2018-Feb-18 21:00N 59°14' E 005°31'0 0.0
2018-Feb-18 20:30N 59°14' E 005°31'0 0.0
2018-Feb-18 20:00N 59°14' E 005°31'0 0.0
2018-Feb-18 19:30N 59°14' E 005°31'0 0.0
2018-Feb-18 19:00N 59°14' E 005°31'0 0.0
2018-Feb-18 18:30N 59°14' E 005°31'0 0.0
2018-Feb-18 18:00N 59°14' E 005°31'0 0.0
2018-Feb-18 17:30N 59°14' E 005°31'0 0.0
2018-Feb-18 17:00N 59°14' E 005°31'0 0.0
2018-Feb-18 16:30N 59°14' E 005°31'0 0.0
2018-Feb-18 16:00N 59°14' E 005°31'0 0.1
2018-Feb-18 15:30N 59°14' E 005°31'0 0.0
2018-Feb-18 15:00N 59°14' E 005°31'0 0.0
2018-Feb-18 14:30N 59°14' E 005°31'0 0.2
2018-Feb-18 14:00N 59°14' E 005°31'3 5.6
2018-Feb-18 13:30N 59°11' E 005°32'510.6
2018-Feb-18 13:00N 59°06' E 005°27'612.1
2018-Feb-18 12:30N 59°03' E 005°17'510.7
2018-Feb-18 12:00N 58°60' E 005°09'714.7
2018-Feb-18 11:30N 58°53' E 005°04'714.9
2018-Feb-18 11:00N 58°46' E 004°60'714.6
2018-Feb-18 10:30N 58°39' E 004°54'714.1
2018-Feb-18 10:00N 58°33' E 004°49'37013.7
2018-Feb-17 07:00N 52°30' E 002°42'4713.3 160 / 141024.0 5.4 7.0 4.710.0
2018-Feb-17 03:25N 51°43' E 002°32'716.1
2018-Feb-17 03:00N 51°38' E 002°25'715.3
2018-Feb-17 02:30N 51°32' E 002°17'815.1
2018-Feb-17 02:00N 51°25' E 002°11'815.1
2018-Feb-17 01:30N 51°18' E 002°07'815.1
2018-Feb-17 01:01N 51°12' E 001°60'815.4
2018-Feb-17 00:30N 51°08' E 001°49'815.8
2018-Feb-17 00:01N 51°03' E 001°40'815.5
2018-Feb-16 23:31N 50°58' E 001°31'814.9
2018-Feb-16 23:00N 50°51' E 001°25'814.8
2018-Feb-16 22:27N 50°43' E 001°22'4214.1
2018-Feb-16 19:30N 50°24' E 000°24'714.4
2018-Feb-16 19:01N 50°22' E 000°13'6361.2
2018-Feb-16 19:00N 50°18' E 000°06'3 6.7 160 / 31027.0 5.4 8.0 5.810.0
2018-Feb-16 18:30N 50°20' E 000°03'713.6
2018-Feb-16 18:00N 50°19' W 000°08'713.2
2018-Feb-16 17:30N 50°17' W 000°18'3811.9
2018-Feb-16 14:17N 50°07' W 001°15'310.9
2018-Feb-16 14:00N 50°06' W 001°20'611.0
2018-Feb-16 13:30N 50°04' W 001°28'611.5
2018-Feb-16 13:01N 50°03' W 001°37'611.9
2018-Feb-16 12:28N 50°02' W 001°47'612.7
2018-Feb-16 11:59N 50°00' W 001°56'713.5
2018-Feb-16 11:30N 49°59' W 002°06'714.1
2018-Feb-16 11:00N 49°57' W 002°16'1314.4
2018-Feb-16 10:06N 49°53' W 002°36'114.8
2018-Feb-16 10:00N 49°53' W 002°38'814.6
2018-Feb-16 09:25N 49°50' W 002°51'1114.8
2018-Feb-16 08:42N 49°46' W 003°05'314.8
2018-Feb-16 08:30N 49°44' W 003°09'51213.6
2018-Feb-14 19:00N 42°36' W 009°54'16213.5 210 / 181019.0 5.4 14.010.213.0
2018-Feb-14 07:00N 39°54' W 009°54'3512.1 220 / 251022.0 5.4 14.012.215.0
2018-Feb-14 04:07N 39°19' W 009°57'213.4
2018-Feb-14 03:57N 39°17' W 009°57'713.7
2018-Feb-14 03:25N 39°10' W 009°57'613.6
2018-Feb-14 03:00N 39°04' W 009°57'713.5
2018-Feb-14 02:30N 38°57' W 009°57'713.6
2018-Feb-14 02:00N 38°51' W 009°57'713.6
2018-Feb-14 01:30N 38°44' W 009°57'713.4
2018-Feb-14 01:00N 38°37' W 009°56'713.3
2018-Feb-14 00:30N 38°31' W 009°54'713.3
2018-Feb-14 00:00N 38°24' W 009°52'7414.8
2018-Feb-13 19:00N 37°12' W 009°30'   230 / 91019.0 5.4 13.0 9.115.0
Track history (hours):
 
Tides and Currents Weather Stations Pressure Air Temp Water Temp Dewpoint Dewpoint Depression Visibility Wind Speed Wind Dir Waves Ship Positions

Kris Kin

Last reported at 2018-Feb-23 19:00 UTC. Time now 2018-Feb-24 00:02 UTC.
Position N 44°36' W 009°12'.

Length 120 m; draft 6.9 m.

Type: Tanker. MMSI: 566481000.

Wind from 100 at 19 knots

Barometer 1010.0 mb
Air temperature 10.0 ° C
Visibility: greater than 5.4 NM
Dewpoint 5.7 ° C
Water temperature 10.0 ° C

Date/timePositionNaut miles runAvg speedWind from/ knotsBaromVisibWave heightAir tempDewpointWater temp
2018-Feb-23 19:00N 44°36' W 009°12'30212.9 100 / 191010.0 5.4 10.0 5.710.0
2018-Feb-22 19:39N 48°59' W 005°36'8512.4
2018-Feb-22 12:47N 49°43' W 003°44'16 6.8
2018-Feb-22 10:31N 49°50' W 003°22'012.5
2018-Feb-22 10:30N 49°50' W 003°22'912.1
2018-Feb-22 09:44N 49°54' W 003°09'412.3
2018-Feb-22 09:27N 49°56' W 003°04'612.5
2018-Feb-22 08:57N 49°59' W 002°56'613.0
2018-Feb-22 08:27N 50°01' W 002°46'813.7
2018-Feb-22 07:51N 50°03' W 002°34'1416.6
2018-Feb-22 07:00N 50°06' W 002°12'1214.2 070 / 131025.0 5.4 6.0 3.6 8.0
2018-Feb-22 06:10N 50°10' W 001°55'316.4
2018-Feb-22 06:01N 50°11' W 001°51'816.4
2018-Feb-22 05:31N 50°13' W 001°39'816.2
2018-Feb-22 05:00N 50°16' W 001°27'816.0
2018-Feb-22 04:30N 50°18' W 001°15'3913.6
2018-Feb-22 01:39N 50°28' W 000°16'212.1
2018-Feb-22 01:30N 50°28' W 000°13'611.7
2018-Feb-22 01:00N 50°30' W 000°04'611.4
2018-Feb-22 00:30N 50°31' E 000°05'611.5
2018-Feb-22 00:00N 50°33' E 000°13'611.6
2018-Feb-21 23:28N 50°35' E 000°22'612.2
2018-Feb-21 23:00N 50°37' E 000°31'613.1
2018-Feb-21 22:30N 50°40' E 000°39'713.9
2018-Feb-21 22:00N 50°44' E 000°49'714.7
2018-Feb-21 21:30N 50°48' E 000°59'815.0
2018-Feb-21 21:00N 50°53' E 001°07'815.1
2018-Feb-21 20:30N 50°58' E 001°16'714.9
2018-Feb-21 20:00N 51°03' E 001°25'713.9
2018-Feb-21 19:30N 51°08' E 001°33'612.8
2018-Feb-21 19:00N 51°12' E 001°41'7580.2
2018-Feb-21 19:00N 51°06' E 001°36'1326.1 030 / 151027.0 5.4 6.0 3.6 3.0
2018-Feb-21 18:30N 51°16' E 001°48'611.9
2018-Feb-21 18:00N 51°22' E 001°53'611.6
2018-Feb-21 17:31N 51°26' E 001°58'611.8
2018-Feb-21 17:00N 51°31' E 002°04'611.7
2018-Feb-21 16:30N 51°36' E 002°09'611.6
2018-Feb-21 16:00N 51°40' E 002°16'612.3
2018-Feb-21 15:29N 51°44' E 002°23'26513.0
2018-Feb-20 19:00N 56°00' E 004°24'15111.8 080 / 61027.0 5.4 4.0-1.5 6.0
2018-Feb-20 06:11N 58°30' E 004°47'211.8
2018-Feb-20 05:59N 58°32' E 004°48'611.8
2018-Feb-20 05:30N 58°37' E 004°52'611.9
2018-Feb-20 05:00N 58°43' E 004°56'612.7
2018-Feb-20 04:30N 58°49' E 004°60'713.7
2018-Feb-20 04:00N 58°56' E 005°04'714.3
2018-Feb-20 03:30N 59°02' E 005°09'714.4
2018-Feb-20 03:00N 59°06' E 005°21'611.6
2018-Feb-20 02:30N 59°09' E 005°30'611.9
2018-Feb-20 02:00N 59°15' E 005°30'1 1.7
2018-Feb-20 01:28N 59°16' E 005°30'0 0.0
2018-Feb-20 00:58N 59°16' E 005°30'0 0.0
2018-Feb-20 00:28N 59°16' E 005°30'0 0.0
2018-Feb-19 23:58N 59°16' E 005°30'0 0.0
2018-Feb-19 23:28N 59°16' E 005°30'0 0.0
2018-Feb-19 22:58N 59°16' E 005°30'0 0.0
2018-Feb-19 22:28N 59°16' E 005°30'0 0.0
2018-Feb-19 21:58N 59°16' E 005°30'0 0.0
2018-Feb-19 21:28N 59°16' E 005°30'0 0.0
2018-Feb-19 20:55N 59°16' E 005°30'0 0.0
2018-Feb-19 20:28N 59°16' E 005°30'0 0.0
2018-Feb-19 19:58N 59°16' E 005°30'0 0.0
2018-Feb-19 19:25N 59°16' E 005°30'0 0.0
2018-Feb-19 18:58N 59°16' E 005°30'0 0.0
2018-Feb-19 18:28N 59°16' E 005°30'0 0.0
2018-Feb-19 17:55N 59°16' E 005°30'0 0.0
2018-Feb-19 17:28N 59°16' E 005°30'0 0.0
2018-Feb-19 16:58N 59°16' E 005°30'0 0.0
2018-Feb-19 16:28N 59°16' E 005°30'0 0.0
2018-Feb-19 15:58N 59°16' E 005°30'0 0.0
2018-Feb-19 15:28N 59°16' E 005°30'0 0.0
2018-Feb-19 14:58N 59°16' E 005°30'0 0.0
2018-Feb-19 14:28N 59°16' E 005°30'0 0.0
2018-Feb-19 13:58N 59°16' E 005°30'0 0.0
2018-Feb-19 13:28N 59°16' E 005°30'0 0.0
2018-Feb-19 12:58N 59°16' E 005°30'0 0.0
2018-Feb-19 12:28N 59°16' E 005°30'0 0.0
2018-Feb-19 11:58N 59°16' E 005°30'0 0.0
2018-Feb-19 11:28N 59°16' E 005°30'0 0.0
2018-Feb-19 10:55N 59°16' E 005°30'0 0.0
2018-Feb-19 10:28N 59°16' E 005°30'0 0.0
2018-Feb-19 09:58N 59°16' E 005°30'0 0.0
2018-Feb-19 09:28N 59°16' E 005°30'0 0.0
2018-Feb-19 08:55N 59°16' E 005°30'0 0.0
2018-Feb-19 08:28N 59°16' E 005°30'0 0.0
2018-Feb-19 07:58N 59°16' E 005°30'0 0.0
2018-Feb-19 07:28N 59°16' E 005°30'0 0.5
2018-Feb-19 07:00N 59°16' E 005°30'2 3.8
2018-Feb-19 06:30N 59°14' E 005°31'0 0.7
2018-Feb-19 06:00N 59°14' E 005°31'0 0.1
2018-Feb-19 05:30N 59°14' E 005°31'0 0.0
2018-Feb-19 05:00N 59°14' E 005°31'0 0.0
2018-Feb-19 04:30N 59°14' E 005°31'0 0.0
2018-Feb-19 04:00N 59°14' E 005°31'0 0.0
2018-Feb-19 03:30N 59°14' E 005°31'0 0.0
2018-Feb-19 03:00N 59°14' E 005°31'0 0.0
2018-Feb-19 02:30N 59°14' E 005°31'0 0.0
2018-Feb-19 02:00N 59°14' E 005°31'0 0.0
2018-Feb-19 01:30N 59°14' E 005°31'0 0.0
2018-Feb-19 01:00N 59°14' E 005°31'0 0.0
2018-Feb-19 00:30N 59°14' E 005°31'0 0.0
2018-Feb-19 00:00N 59°14' E 005°31'0 0.0
2018-Feb-18 23:30N 59°14' E 005°31'0 0.0
2018-Feb-18 23:00N 59°14' E 005°31'0 0.0
2018-Feb-18 22:30N 59°14' E 005°31'0 0.0
2018-Feb-18 22:00N 59°14' E 005°31'0 0.0
2018-Feb-18 21:30N 59°14' E 005°31'0 0.0
2018-Feb-18 21:00N 59°14' E 005°31'0 0.0
2018-Feb-18 20:30N 59°14' E 005°31'0 0.0
2018-Feb-18 20:00N 59°14' E 005°31'0 0.0
2018-Feb-18 19:30N 59°14' E 005°31'0 0.0
2018-Feb-18 19:00N 59°14' E 005°31'0 0.0
2018-Feb-18 18:30N 59°14' E 005°31'0 0.0
2018-Feb-18 18:00N 59°14' E 005°31'0 0.0
2018-Feb-18 17:30N 59°14' E 005°31'0 0.0
2018-Feb-18 17:00N 59°14' E 005°31'0 0.0
2018-Feb-18 16:30N 59°14' E 005°31'0 0.0
2018-Feb-18 16:00N 59°14' E 005°31'0 0.1
2018-Feb-18 15:30N 59°14' E 005°31'0 0.0
2018-Feb-18 15:00N 59°14' E 005°31'0 0.0
2018-Feb-18 14:30N 59°14' E 005°31'0 0.2
2018-Feb-18 14:00N 59°14' E 005°31'3 5.6
2018-Feb-18 13:30N 59°11' E 005°32'510.6
2018-Feb-18 13:00N 59°06' E 005°27'612.1
2018-Feb-18 12:30N 59°03' E 005°17'510.7
2018-Feb-18 12:00N 58°60' E 005°09'714.7
2018-Feb-18 11:30N 58°53' E 005°04'714.9
2018-Feb-18 11:00N 58°46' E 004°60'714.6
2018-Feb-18 10:30N 58°39' E 004°54'714.1
2018-Feb-18 10:00N 58°33' E 004°49'37013.7
2018-Feb-17 07:00N 52°30' E 002°42'4713.3 160 / 141024.0 5.4 7.0 4.710.0
2018-Feb-17 03:25N 51°43' E 002°32'716.1
2018-Feb-17 03:00N 51°38' E 002°25'715.3
2018-Feb-17 02:30N 51°32' E 002°17'815.1
2018-Feb-17 02:00N 51°25' E 002°11'815.1
2018-Feb-17 01:30N 51°18' E 002°07'815.1
2018-Feb-17 01:01N 51°12' E 001°60'815.4
2018-Feb-17 00:30N 51°08' E 001°49'815.8
2018-Feb-17 00:01N 51°03' E 001°40'815.5
2018-Feb-16 23:31N 50°58' E 001°31'814.9
2018-Feb-16 23:00N 50°51' E 001°25'814.8
2018-Feb-16 22:27N 50°43' E 001°22'4214.1
2018-Feb-16 19:30N 50°24' E 000°24'714.4
2018-Feb-16 19:01N 50°22' E 000°13'6361.2
2018-Feb-16 19:00N 50°18' E 000°06'3 6.7 160 / 31027.0 5.4 8.0 5.810.0
2018-Feb-16 18:30N 50°20' E 000°03'713.6
2018-Feb-16 18:00N 50°19' W 000°08'713.2
2018-Feb-16 17:30N 50°17' W 000°18'3811.9
2018-Feb-16 14:17N 50°07' W 001°15'310.9
2018-Feb-16 14:00N 50°06' W 001°20'611.0
2018-Feb-16 13:30N 50°04' W 001°28'611.5
2018-Feb-16 13:01N 50°03' W 001°37'611.9
2018-Feb-16 12:28N 50°02' W 001°47'612.7
2018-Feb-16 11:59N 50°00' W 001°56'713.5
2018-Feb-16 11:30N 49°59' W 002°06'714.1
2018-Feb-16 11:00N 49°57' W 002°16'1314.4
2018-Feb-16 10:06N 49°53' W 002°36'114.8
2018-Feb-16 10:00N 49°53' W 002°38'814.6
2018-Feb-16 09:25N 49°50' W 002°51'1114.8
2018-Feb-16 08:42N 49°46' W 003°05'314.8
2018-Feb-16 08:30N 49°44' W 003°09'51213.6
2018-Feb-14 19:00N 42°36' W 009°54'16213.5 210 / 181019.0 5.4 14.010.213.0
2018-Feb-14 07:00N 39°54' W 009°54'3512.1 220 / 251022.0 5.4 14.012.215.0
2018-Feb-14 04:07N 39°19' W 009°57'213.4
2018-Feb-14 03:57N 39°17' W 009°57'713.7
2018-Feb-14 03:25N 39°10' W 009°57'613.6
2018-Feb-14 03:00N 39°04' W 009°57'713.5
2018-Feb-14 02:30N 38°57' W 009°57'713.6
2018-Feb-14 02:00N 38°51' W 009°57'713.6
2018-Feb-14 01:30N 38°44' W 009°57'713.4
2018-Feb-14 01:00N 38°37' W 009°56'713.3
2018-Feb-14 00:30N 38°31' W 009°54'713.3
2018-Feb-14 00:00N 38°24' W 009°52'7414.8
2018-Feb-13 19:00N 37°12' W 009°30'   230 / 91019.0 5.4 13.0 9.115.0

Dump ship's entire track history